Time;durP1;ratioP1;P1;durP2;ratioP2;P2;SDS_P1;SDS_P2;PMS_P1;PMS_P2;Temp;Humidity;BMP_temperature;BMP_pressure;BME280_temperature;BME280_humidity;BME280_pressure;Samples;Min_cycle;Max_cycle;Signal;HPM_P1;HPM_P2
2022/06/04 00:00:57;;;;;;;1.60;1.13;;;11.60;99.90;;;;;;5088705;28;20380;-85
2022/06/04 00:03:26;;;;;;;2.50;1.05;;;11.70;99.90;;;;;;5088833;28;20429;-85
2022/06/04 00:05:55;;;;;;;1.52;1.17;;;11.80;99.90;;;;;;5088709;28;20381;-85
2022/06/04 00:08:23;;;;;;;2.08;1.20;;;11.90;99.90;;;;;;5092608;28;20368;-85
2022/06/04 00:16:27;;;;;;;1.40;0.90;;;12.40;99.90;;;;;;5089042;28;20772;-84
2022/06/04 00:18:54;;;;;;;1.33;0.90;;;12.40;99.90;;;;;;5088866;28;20376;-84
2022/06/04 00:21:23;;;;;;;3.63;1.37;;;12.40;99.90;;;;;;5088909;28;20411;-84
2022/06/04 00:23:51;;;;;;;1.65;0.82;;;12.50;99.90;;;;;;5088583;28;20379;-84
2022/06/04 00:26:20;;;;;;;0.85;0.63;;;12.70;99.90;;;;;;5088620;28;20384;-84
2022/06/04 00:28:48;;;;;;;1.63;1.20;;;12.80;99.90;;;;;;5088721;28;20376;-85
2022/06/04 00:31:16;;;;;;;1.25;0.70;;;12.90;99.90;;;;;;5088624;28;20424;-85
2022/06/04 00:33:44;;;;;;;1.05;0.70;;;13.00;99.90;;;;;;5088747;28;20429;-85
2022/06/04 00:36:11;;;;;;;1.42;0.90;;;13.10;99.90;;;;;;5088302;28;20403;-86
2022/06/04 00:38:38;;;;;;;1.70;0.70;;;13.20;99.90;;;;;;5088706;28;20380;-85
2022/06/04 00:41:21;;;;;;;0.93;0.68;;;13.10;99.90;;;;;;5088646;28;20376;-85
2022/06/04 00:44:06;;;;;;;1.00;0.90;;;13.10;99.90;;;;;;5088829;28;20429;-86
2022/06/04 00:46:42;;;;;;;0.53;0.50;;;13.20;99.90;;;;;;5088393;28;20444;-85
2022/06/04 00:49:18;;;;;;;1.13;0.93;;;13.20;99.90;;;;;;5088781;28;20372;-86
2022/06/04 00:51:49;;;;;;;1.60;0.93;;;13.20;99.90;;;;;;5070246;28;20385;-86
2022/06/04 00:54:17;;;;;;;3.50;0.80;;;13.40;99.90;;;;;;5090083;28;20536;-86
2022/06/04 00:56:56;;;;;;;1.15;0.93;;;13.60;99.90;;;;;;5092634;28;20372;-86
2022/06/04 00:59:41;;;;;;;1.90;0.82;;;13.80;99.90;;;;;;5074060;28;20392;-86
2022/06/04 01:02:43;;;;;;;0.70;0.50;;;14.00;99.90;;;;;;5092194;28;20364;-86
2022/06/04 01:05:31;;;;;;;0.90;0.50;;;14.00;98.10;;;;;;5092675;28;20400;-87
2022/06/04 01:08:22;;;;;;;0.52;0.30;;;14.00;96.80;;;;;;5092681;28;20376;-88
2022/06/04 01:11:03;;;;;;;1.45;0.40;;;14.10;96.40;;;;;;5092485;28;20856;-86
2022/06/04 01:13:51;;;;;;;0.30;0.30;;;14.30;96.30;;;;;;5092048;28;20368;-86
2022/06/04 01:16:31;;;;;;;0.70;0.40;;;14.40;95.90;;;;;;5092208;28;20373;-85
2022/06/04 01:19:26;;;;;;;0.95;0.50;;;14.50;96.20;;;;;;5073615;28;20377;-86
2022/06/04 01:22:24;;;;;;;0.55;0.40;;;14.60;93.60;;;;;;5073622;28;20383;-86
2022/06/04 01:25:06;;;;;;;1.10;0.50;;;14.50;95.10;;;;;;5073595;28;20376;-85
2022/06/04 01:27:45;;;;;;;0.70;0.50;;;14.60;95.20;;;;;;5091655;28;20727;-85
2022/06/04 01:30:15;;;;;;;1.00;0.50;;;14.70;92.80;;;;;;5091733;28;20435;-85
2022/06/04 01:32:48;;;;;;;1.48;0.50;;;14.80;91.50;;;;;;5091620;28;20372;-85
2022/06/04 01:35:39;;;;;;;0.63;0.40;;;14.70;91.70;;;;;;5091455;28;20887;-85
2022/06/04 01:38:17;;;;;;;1.00;0.50;;;14.70;92.90;;;;;;5091493;28;20472;-84
2022/06/04 01:41:05;;;;;;;1.30;0.47;;;14.80;90.80;;;;;;5091869;28;20356;-85
2022/06/04 01:43:39;;;;;;;0.80;0.50;;;14.70;92.90;;;;;;5091674;28;20414;-85
2022/06/04 01:46:15;;;;;;;0.60;0.40;;;15.00;92.50;;;;;;5091989;28;20665;-84
2022/06/04 01:48:46;;;;;;;0.63;0.40;;;15.20;90.00;;;;;;5091552;28;20725;-85
2022/06/04 01:51:19;;;;;;;0.63;0.40;;;15.20;85.60;;;;;;5091782;28;20397;-89
2022/06/04 01:53:49;;;;;;;2.30;0.50;;;15.30;89.20;;;;;;5091570;28;20367;-85
2022/06/04 01:56:31;;;;;;;1.25;0.50;;;15.40;85.30;;;;;;5095758;28;20402;-84
2022/06/04 01:59:31;;;;;;;2.78;0.47;;;15.50;87.80;;;;;;5076908;28;20728;-85
2022/06/04 02:02:01;;;;;;;1.50;0.50;;;15.50;83.40;;;;;;4989649;28;20409;-84
2022/06/04 02:04:36;;;;;;;0.90;0.40;;;15.60;86.30;;;;;;4989274;28;20373;-85
2022/06/04 02:10:15;;;;;;;1.10;0.40;;;15.60;83.00;;;;;;4990233;28;21017;-85
2022/06/04 02:12:45;;;;;;;0.43;0.40;;;15.50;81.20;;;;;;4989765;28;20384;-85
2022/06/04 02:15:19;;;;;;;1.70;0.40;;;15.50;80.90;;;;;;4989415;28;20460;-85
2022/06/04 02:17:53;;;;;;;1.00;0.50;;;15.60;82.80;;;;;;4972858;28;20412;-85
2022/06/04 02:20:21;;;;;;;0.60;0.40;;;15.70;82.60;;;;;;4989656;28;20384;-85
2022/06/04 02:22:49;;;;;;;1.23;0.50;;;15.70;82.90;;;;;;4989006;28;20377;-85
2022/06/04 02:25:16;;;;;;;0.60;0.40;;;15.80;82.90;;;;;;4989320;28;20443;-85
2022/06/04 02:27:44;;;;;;;2.03;0.40;;;15.90;80.10;;;;;;4988881;28;20412;-85
2022/06/04 02:30:13;;;;;;;2.47;0.40;;;16.10;80.60;;;;;;4989026;28;20420;-85
2022/06/04 02:33:02;;;;;;;0.40;0.38;;;16.20;76.60;;;;;;4989089;28;20427;-85
2022/06/04 02:36:01;;;;;;;1.80;0.50;;;16.10;76.30;;;;;;4999047;28;20478;-86
2022/06/04 02:38:53;;;;;;;0.80;0.40;;;16.10;77.60;;;;;;5056452;28;20360;-85
2022/06/04 02:41:20;;;;;;;1.30;0.40;;;16.20;80.90;;;;;;5090289;28;20385;-84
2022/06/04 02:44:08;;;;;;;1.60;0.50;;;16.20;77.50;;;;;;5090531;28;20372;-85
2022/06/04 02:46:44;;;;;;;0.75;0.30;;;16.10;77.90;;;;;;5091021;28;20369;-85
2022/06/04 02:49:21;;;;;;;1.45;0.50;;;16.20;78.30;;;;;;5090161;28;20455;-85
2022/06/04 02:51:51;;;;;;;0.55;0.35;;;16.10;75.80;;;;;;5090532;28;20396;-84
2022/06/04 02:57:50;;;;;;;1.37;0.60;;;16.30;76.70;;;;;;5090288;28;20921;-85
2022/06/04 03:00:21;;;;;;;1.70;0.40;;;16.40;75.80;;;;;;5089880;28;20438;-84
2022/06/04 03:02:50;;;;;;;1.08;0.50;;;16.40;73.50;;;;;;5089859;28;20599;-85
2022/06/04 03:05:24;;;;;;;1.27;0.40;;;16.50;72.40;;;;;;5089836;28;20736;-85
2022/06/04 03:07:56;;;;;;;1.00;0.50;;;16.50;73.50;;;;;;5090061;28;20357;-86
2022/06/04 03:10:27;;;;;;;0.80;0.50;;;16.50;74.70;;;;;;5090496;28;20745;-86
2022/06/04 03:12:55;;;;;;;1.77;0.55;;;16.60;73.20;;;;;;5089754;28;20429;-86
2022/06/04 03:15:22;;;;;;;1.00;0.50;;;16.50;74.20;;;;;;5088351;28;20464;-84
2022/06/04 03:17:50;;;;;;;1.73;0.70;;;16.60;75.70;;;;;;5088944;28;20379;-84
2022/06/04 03:20:23;;;;;;;0.60;0.40;;;16.50;73.60;;;;;;5089690;28;20488;-84
2022/06/04 03:22:51;;;;;;;1.45;0.50;;;16.40;74.50;;;;;;5089390;28;20422;-84
2022/06/04 03:25:19;;;;;;;0.57;0.50;;;16.50;75.30;;;;;;5089369;28;20423;-83
2022/06/04 03:27:47;;;;;;;0.70;0.40;;;16.60;72.00;;;;;;5089471;28;20372;-83
2022/06/04 03:30:15;;;;;;;0.68;0.40;;;16.70;71.60;;;;;;5089946;28;20392;-85
2022/06/04 03:32:43;;;;;;;0.52;0.40;;;16.80;71.50;;;;;;5089232;28;20399;-84
2022/06/04 03:35:13;;;;;;;1.17;0.40;;;16.90;71.40;;;;;;5089121;28;20388;-85
2022/06/04 03:37:40;;;;;;;0.73;0.40;;;16.90;71.20;;;;;;5089412;28;20356;-84
2022/06/04 03:40:08;;;;;;;0.55;0.40;;;16.90;68.90;;;;;;5089203;28;20368;-85
2022/06/04 03:42:35;;;;;;;0.47;0.32;;;16.90;69.60;;;;;;5089120;28;20399;-85
2022/06/04 03:45:03;;;;;;;1.38;0.40;;;17.00;70.30;;;;;;5089149;28;20725;-84
2022/06/04 03:47:33;;;;;;;0.50;0.35;;;17.00;70.50;;;;;;5070965;28;20774;-85
2022/06/04 03:50:07;;;;;;;0.70;0.43;;;17.00;70.20;;;;;;5089038;28;20446;-84
2022/06/04 03:52:34;;;;;;;1.27;0.57;;;17.10;70.70;;;;;;5089191;28;21088;-85
2022/06/04 03:55:01;;;;;;;0.85;0.50;;;17.00;70.80;;;;;;5088900;28;20388;-85
2022/06/04 03:57:39;;;;;;;0.60;0.40;;;17.00;70.40;;;;;;5088922;28;20883;-85
2022/06/04 04:00:14;;;;;;;1.08;0.50;;;17.00;70.00;;;;;;5070625;28;20376;-84
2022/06/04 04:02:43;;;;;;;0.90;0.40;;;17.00;69.60;;;;;;5089414;28;20368;-85
2022/06/04 04:05:13;;;;;;;2.38;0.57;;;17.00;69.70;;;;;;5089043;28;20404;-85
2022/06/04 04:07:40;;;;;;;1.40;0.38;;;16.80;69.50;;;;;;5088734;28;20373;-86
2022/06/04 04:10:09;;;;;;;0.90;0.30;;;16.80;69.90;;;;;;5088603;28;20400;-85
2022/06/04 04:12:37;;;;;;;2.28;1.52;;;16.80;70.20;;;;;;5088549;28;20365;-84
2022/06/04 04:15:05;;;;;;;10.95;9.80;;;16.80;69.70;;;;;;5088611;28;20377;-85
2022/06/04 04:17:35;;;;;;;56.92;47.58;;;16.80;69.30;;;;;;5088366;28;20377;-86
2022/06/04 04:20:03;;;;;;;39.88;30.92;;;16.70;69.80;;;;;;5088552;28;20417;-86
2022/06/04 04:22:30;;;;;;;4.75;4.15;;;16.80;70.00;;;;;;5088492;28;20376;-86
2022/06/04 04:24:57;;;;;;;1.40;0.60;;;16.80;70.80;;;;;;5088464;28;20376;-85
2022/06/04 04:27:24;;;;;;;1.10;0.50;;;16.70;70.80;;;;;;5088325;28;20376;-86
2022/06/04 04:29:51;;;;;;;1.92;0.80;;;16.60;70.60;;;;;;5088512;28;20411;-86
2022/06/04 04:32:18;;;;;;;0.73;0.60;;;16.60;70.20;;;;;;5088406;28;20372;-86
2022/06/04 04:34:46;;;;;;;0.70;0.60;;;16.50;72.40;;;;;;5088266;28;20455;-86
2022/06/04 04:37:13;;;;;;;1.63;0.60;;;16.70;73.80;;;;;;5088877;28;20360;-85
2022/06/04 04:39:40;;;;;;;1.67;0.50;;;16.80;70.30;;;;;;5088359;28;20379;-86
2022/06/04 04:42:07;;;;;;;1.30;0.40;;;16.70;70.80;;;;;;5088339;28;20389;-86
2022/06/04 04:44:34;;;;;;;1.48;0.63;;;16.70;72.60;;;;;;5088394;28;20383;-86
2022/06/04 04:47:01;;;;;;;0.50;0.50;;;16.70;71.10;;;;;;5088661;28;20426;-86
2022/06/04 04:49:28;;;;;;;0.57;0.57;;;16.80;71.60;;;;;;5088265;28;20434;-85
2022/06/04 04:51:56;;;;;;;1.08;0.70;;;17.00;71.70;;;;;;5088104;28;20388;-86
2022/06/04 04:54:23;;;;;;;1.83;0.70;;;16.90;69.90;;;;;;5088161;28;20383;-85
2022/06/04 04:56:50;;;;;;;1.63;1.07;;;16.90;70.40;;;;;;5088535;28;20453;-85
2022/06/04 04:59:17;;;;;;;2.03;1.20;;;16.90;70.30;;;;;;5088475;28;20794;-86
2022/06/04 05:01:45;;;;;;;3.30;2.20;;;16.60;70.50;;;;;;5088333;28;20427;-84
2022/06/04 05:04:12;;;;;;;2.10;1.27;;;16.60;71.00;;;;;;5088106;28;20364;-85
2022/06/04 05:06:39;;;;;;;2.13;0.60;;;16.50;72.60;;;;;;5088157;28;20378;-86
2022/06/04 05:09:06;;;;;;;0.85;0.50;;;16.40;72.60;;;;;;5087976;28;20430;-86
2022/06/04 05:11:34;;;;;;;0.60;0.30;;;16.30;73.10;;;;;;5088133;28;20411;-86
2022/06/04 05:14:02;;;;;;;1.52;0.75;;;16.30;72.40;;;;;;5088207;28;20369;-83
2022/06/04 05:16:36;;;;;;;1.58;0.80;;;16.20;73.70;;;;;;5088521;28;20368;-84
2022/06/04 05:19:05;;;;;;;1.13;0.90;;;16.20;73.40;;;;;;5088692;28;20407;-84
2022/06/04 05:21:40;;;;;;;1.23;0.55;;;16.20;73.80;;;;;;5088032;28;20432;-83
2022/06/04 05:24:13;;;;;;;2.50;1.33;;;16.20;74.00;;;;;;5087985;28;20413;-84
2022/06/04 05:26:40;;;;;;;0.50;0.50;;;16.20;74.20;;;;;;5088128;28;20909;-82
2022/06/04 05:29:07;;;;;;;0.95;0.73;;;16.10;75.40;;;;;;5088888;28;20778;-82
2022/06/04 05:31:34;;;;;;;0.65;0.30;;;16.10;73.20;;;;;;5087915;28;20380;-82
2022/06/04 05:34:01;;;;;;;1.13;1.10;;;16.00;72.30;;;;;;5087778;28;20792;-83
2022/06/04 05:36:30;;;;;;;2.67;1.92;;;15.90;72.70;;;;;;5087979;28;20486;-83
2022/06/04 05:38:57;;;;;;;2.53;2.33;;;15.80;72.40;;;;;;5087838;28;20401;-84
2022/06/04 05:41:25;;;;;;;1.75;1.42;;;15.70;73.50;;;;;;5090891;28;20377;-84
2022/06/04 05:43:53;;;;;;;1.10;0.77;;;15.60;75.10;;;;;;5091373;28;20368;-84
2022/06/04 05:46:22;;;;;;;1.05;0.60;;;15.70;75.80;;;;;;5091393;28;20373;-82
2022/06/04 05:48:49;;;;;;;1.98;1.70;;;15.80;74.00;;;;;;5091388;28;20372;-84
2022/06/04 05:51:26;;;;;;;0.77;0.60;;;15.80;73.10;;;;;;5091162;28;20867;-83
2022/06/04 05:53:53;;;;;;;1.52;1.30;;;15.80;73.90;;;;;;5091523;28;20440;-84
2022/06/04 05:56:29;;;;;;;3.55;3.10;;;15.70;73.50;;;;;;5091485;28;20442;-82
2022/06/04 05:58:59;;;;;;;1.92;0.60;;;15.60;75.80;;;;;;5073305;28;20380;-82
2022/06/04 06:01:29;;;;;;;0.98;0.43;;;15.50;75.70;;;;;;5091083;28;20455;-84
2022/06/04 06:03:56;;;;;;;0.90;0.60;;;15.50;75.20;;;;;;5091016;28;20372;-84
2022/06/04 06:06:31;;;;;;;0.60;0.50;;;15.50;76.40;;;;;;5091234;28;20383;-83
2022/06/04 06:09:03;;;;;;;1.13;0.60;;;15.40;76.30;;;;;;5091293;28;20474;-83
2022/06/04 06:11:31;;;;;;;1.00;0.60;;;15.40;77.70;;;;;;5090748;28;20407;-84
2022/06/04 06:13:58;;;;;;;1.92;0.98;;;15.30;77.60;;;;;;5090907;28;20728;-83
2022/06/04 06:16:32;;;;;;;0.83;0.80;;;15.30;77.90;;;;;;5090893;28;20385;-84
2022/06/04 06:18:59;;;;;;;2.45;0.88;;;15.20;78.70;;;;;;5091068;28;20855;-84
2022/06/04 06:21:30;;;;;;;3.03;1.00;;;15.20;78.70;;;;;;5091088;28;20852;-83
2022/06/04 06:27:19;;;;;;;1.20;0.60;;;14.90;81.00;;;;;;5090819;28;20359;-83
2022/06/04 06:29:46;;;;;;;2.30;1.75;;;14.70;80.90;;;;;;5090472;28;20878;-83
2022/06/04 06:32:13;;;;;;;1.70;1.50;;;14.60;82.30;;;;;;5090589;28;20488;-84
2022/06/04 06:34:40;;;;;;;3.60;3.15;;;14.40;82.90;;;;;;5090299;28;20388;-85
2022/06/04 06:37:07;;;;;;;2.75;1.42;;;14.30;84.50;;;;;;5090321;28;20426;-87
2022/06/04 06:39:35;;;;;;;1.98;1.60;;;14.10;85.50;;;;;;5090657;28;20380;-83
2022/06/04 06:42:02;;;;;;;1.98;1.30;;;14.00;86.90;;;;;;5090247;28;20380;-85
2022/06/04 06:44:29;;;;;;;1.30;1.20;;;13.80;89.00;;;;;;5090745;28;20387;-83
2022/06/04 06:46:56;;;;;;;2.40;1.33;;;13.70;90.10;;;;;;5090351;28;20736;-83
2022/06/04 06:49:27;;;;;;;2.80;1.30;;;13.60;91.00;;;;;;5090459;28;20372;-84
2022/06/04 06:51:57;;;;;;;2.90;1.70;;;13.50;91.80;;;;;;5089232;28;20377;-83
2022/06/04 06:54:27;;;;;;;4.00;2.13;;;13.40;91.90;;;;;;5090843;28;20861;-85
2022/06/04 06:56:56;;;;;;;3.33;1.67;;;13.30;92.30;;;;;;5090309;28;20451;-82
2022/06/04 06:59:27;;;;;;;3.40;1.48;;;13.30;92.90;;;;;;5089762;28;20377;-82
2022/06/04 07:01:56;;;;;;;2.78;1.58;;;13.20;93.00;;;;;;5089874;28;20459;-83
2022/06/04 07:04:23;;;;;;;4.00;1.50;;;13.20;93.60;;;;;;5089370;28;20406;-83
2022/06/04 07:06:53;;;;;;;3.25;1.60;;;13.20;93.80;;;;;;5071494;28;20368;-82
2022/06/04 07:09:23;;;;;;;2.67;2.00;;;13.10;93.90;;;;;;5089382;28;20390;-84
2022/06/04 07:11:51;;;;;;;2.20;1.80;;;13.10;94.10;;;;;;5090172;28;20365;-81
2022/06/04 07:14:20;;;;;;;2.38;1.90;;;13.20;93.50;;;;;;5089898;28;20372;-81
2022/06/04 07:16:47;;;;;;;2.92;1.90;;;13.30;94.00;;;;;;5089961;28;20377;-83
2022/06/04 07:19:16;;;;;;;3.23;1.50;;;13.20;93.90;;;;;;5071404;28;20380;-81
2022/06/04 07:21:44;;;;;;;2.85;1.67;;;13.20;94.00;;;;;;5089550;28;20392;-82
2022/06/04 07:24:11;;;;;;;2.00;1.40;;;13.20;94.10;;;;;;5089888;28;20460;-83
2022/06/04 07:26:40;;;;;;;3.03;1.50;;;13.10;94.00;;;;;;5089403;28;20377;-82
2022/06/04 07:29:07;;;;;;;3.40;1.50;;;13.00;94.80;;;;;;5089646;28;20379;-86
2022/06/04 07:31:35;;;;;;;1.92;1.30;;;13.00;94.60;;;;;;5090022;28;20385;-84
2022/06/04 07:34:03;;;;;;;2.28;1.40;;;13.10;94.30;;;;;;5089419;28;20748;-88
2022/06/04 07:36:34;;;;;;;2.20;1.40;;;13.20;94.50;;;;;;5089307;28;20437;-85
2022/06/04 07:39:02;;;;;;;2.10;1.38;;;13.30;94.10;;;;;;5089065;28;20399;-82
2022/06/04 07:41:35;;;;;;;2.30;1.50;;;13.30;94.10;;;;;;5090501;28;20371;-83
2022/06/04 07:44:03;;;;;;;1.50;1.20;;;13.20;94.40;;;;;;5090213;28;20753;-82
2022/06/04 07:46:31;;;;;;;2.60;1.40;;;13.20;94.40;;;;;;5089217;28;20364;-85
2022/06/04 07:49:03;;;;;;;3.47;1.90;;;13.20;94.30;;;;;;5089101;28;20373;-81
2022/06/04 07:51:33;;;;;;;5.80;3.10;;;13.20;94.30;;;;;;5088848;28;20400;-83
2022/06/04 07:54:01;;;;;;;3.33;2.20;;;13.10;94.60;;;;;;5089199;28;20375;-82
2022/06/04 07:56:28;;;;;;;3.53;2.20;;;13.20;94.30;;;;;;5088860;28;20412;-81
2022/06/04 07:58:55;;;;;;;4.53;2.30;;;13.10;94.60;;;;;;5088734;28;20365;-83
2022/06/04 08:01:23;;;;;;;4.00;2.10;;;13.10;94.90;;;;;;5089097;28;20377;-80
2022/06/04 08:03:53;;;;;;;3.45;1.90;;;13.00;94.80;;;;;;5070227;28;20376;-83
2022/06/04 08:06:21;;;;;;;3.17;1.48;;;13.00;95.00;;;;;;5089334;28;20383;-84
2022/06/04 08:08:51;;;;;;;2.72;2.45;;;13.00;94.70;;;;;;5088429;28;20384;-81
2022/06/04 08:11:31;;;;;;;4.35;2.63;;;12.90;95.10;;;;;;5088549;28;20392;-81
2022/06/04 08:14:08;;;;;;;2.07;1.50;;;12.80;95.40;;;;;;5089242;28;20359;-82
2022/06/04 08:16:38;;;;;;;4.47;2.77;;;12.70;95.50;;;;;;5088976;28;20389;-81
2022/06/04 08:19:09;;;;;;;4.28;2.40;;;12.60;95.80;;;;;;5088620;28;20376;-82
2022/06/04 08:21:38;;;;;;;3.92;2.60;;;12.50;96.30;;;;;;5088862;28;20875;-83
2022/06/04 08:24:07;;;;;;;2.58;1.88;;;12.50;96.70;;;;;;5088443;28;20848;-82
2022/06/04 08:26:34;;;;;;;2.55;1.90;;;12.40;97.30;;;;;;5088299;28;20391;-83
2022/06/04 08:29:02;;;;;;;2.80;2.00;;;12.30;97.20;;;;;;5088536;28;20368;-83
2022/06/04 08:31:29;;;;;;;3.88;1.90;;;12.30;97.60;;;;;;5088322;28;20422;-84
2022/06/04 08:33:57;;;;;;;3.67;2.77;;;12.20;98.00;;;;;;5088261;28;20365;-82
2022/06/04 08:36:24;;;;;;;3.60;1.90;;;12.20;98.50;;;;;;5088684;28;20396;-81
2022/06/04 08:38:51;;;;;;;3.73;2.13;;;12.10;98.50;;;;;;5088537;28;20394;-81
2022/06/04 08:41:41;;;;;;;3.80;2.10;;;12.10;98.90;;;;;;5088137;28;20451;-81
2022/06/04 08:44:16;;;;;;;3.53;1.80;;;12.00;99.00;;;;;;5088050;28;20376;-81
2022/06/04 08:47:11;;;;;;;3.50;2.10;;;11.90;99.40;;;;;;5088276;28;20365;-82
2022/06/04 08:49:49;;;;;;;2.92;2.20;;;11.80;99.60;;;;;;5075203;28;20934;-82
2022/06/04 08:52:24;;;;;;;2.58;1.88;;;11.80;99.90;;;;;;5088238;28;20372;-83
2022/06/04 08:58:05;;;;;;;5.10;3.80;;;11.80;99.90;;;;;;5088486;28;20364;-82
2022/06/04 09:00:44;;;;;;;4.28;3.10;;;11.70;99.90;;;;;;5069978;28;20376;-84
2022/06/04 09:03:21;;;;;;;5.35;3.40;;;11.80;99.90;;;;;;5088714;28;20685;-82
2022/06/04 09:06:13;;;;;;;6.20;4.78;;;11.90;99.90;;;;;;5088053;28;20434;-82
2022/06/04 09:08:55;;;;;;;4.22;3.30;;;11.90;99.90;;;;;;5087922;28;20365;-82
2022/06/04 09:11:51;;;;;;;4.63;3.25;;;12.00;99.90;;;;;;5088007;28;20414;-81
2022/06/04 09:14:46;;;;;;;4.13;3.50;;;12.00;99.80;;;;;;5088431;28;20361;-82
2022/06/04 09:17:18;;;;;;;5.47;3.60;;;12.10;99.60;;;;;;5092099;28;20429;-82
2022/06/04 09:19:58;;;;;;;3.72;2.90;;;12.10;99.40;;;;;;5092049;28;20369;-81
2022/06/04 09:22:39;;;;;;;3.88;2.60;;;12.00;99.60;;;;;;5092196;28;20415;-82
2022/06/04 09:25:12;;;;;;;3.35;2.33;;;12.00;99.70;;;;;;5091670;28;20372;-82
2022/06/04 09:27:45;;;;;;;3.17;2.47;;;11.80;99.90;;;;;;5091600;28;20365;-82
2022/06/04 09:30:28;;;;;;;3.30;2.38;;;11.70;99.90;;;;;;5092047;28;20401;-81
2022/06/04 09:33:15;;;;;;;4.15;2.10;;;11.60;99.90;;;;;;5074929;28;20381;-80
2022/06/04 09:35:44;;;;;;;3.60;2.30;;;11.60;99.90;;;;;;5092811;28;20511;-81
2022/06/04 09:38:30;;;;;;;3.60;2.40;;;11.50;99.90;;;;;;5092232;28;20372;-83
2022/06/04 09:41:18;;;;;;;3.33;2.50;;;11.50;99.90;;;;;;5091389;28;20372;-82
2022/06/04 09:44:08;;;;;;;3.30;2.65;;;11.40;99.90;;;;;;5090569;28;20416;-82
2022/06/04 09:46:36;;;;;;;3.67;2.40;;;11.40;99.90;;;;;;5091319;28;20882;-81
2022/06/04 09:49:24;;;;;;;3.37;2.40;;;11.40;99.90;;;;;;5073255;28;20372;-82
2022/06/04 09:51:52;;;;;;;2.97;2.50;;;11.30;99.90;;;;;;5091843;28;20376;-82
2022/06/04 09:54:35;;;;;;;4.38;2.47;;;11.20;99.90;;;;;;5092098;28;20364;-81
2022/06/04 09:57:05;;;;;;;3.33;2.60;;;11.30;99.90;;;;;;5091322;28;20365;-82
2022/06/04 09:59:34;;;;;;;3.58;2.67;;;11.20;99.90;;;;;;5091172;28;20373;-82
2022/06/04 10:02:11;;;;;;;3.17;2.38;;;11.20;99.90;;;;;;5091799;28;20395;-81
2022/06/04 10:04:46;;;;;;;3.47;2.20;;;11.20;99.90;;;;;;5091147;28;20384;-84
2022/06/04 10:07:15;;;;;;;2.33;2.08;;;11.20;99.90;;;;;;5091086;28;20854;-82
2022/06/04 10:09:57;;;;;;;3.67;2.10;;;11.20;99.90;;;;;;5090884;28;20396;-82
2022/06/04 10:15:50;;;;;;;4.57;2.50;;;11.30;99.90;;;;;;5091162;28;21056;-83
2022/06/04 10:18:34;;;;;;;3.28;2.60;;;11.40;99.90;;;;;;5090848;28;20415;-82
2022/06/04 10:21:06;;;;;;;4.03;2.67;;;11.40;99.90;;;;;;5090539;28;20368;-82
2022/06/04 10:23:50;;;;;;;6.18;2.80;;;11.30;99.90;;;;;;5091228;28;20368;-82
2022/06/04 10:26:40;;;;;;;6.18;3.30;;;11.30;99.90;;;;;;5090774;28;20765;-81
2022/06/04 10:29:19;;;;;;;4.38;3.10;;;11.30;99.90;;;;;;5090697;28;20874;-82
2022/06/04 10:32:26;;;;;;;5.47;3.42;;;11.20;99.90;;;;;;5091126;28;20396;-82
2022/06/04 10:35:18;;;;;;;6.22;3.58;;;11.20;99.90;;;;;;5090148;28;20737;-82
2022/06/04 10:38:10;;;;;;;8.75;6.18;;;11.10;99.90;;;;;;5091032;28;20787;-82
2022/06/04 10:40:40;;;;;;;5.87;4.73;;;10.90;99.90;;;;;;5072549;28;20369;-82
2022/06/04 10:43:35;;;;;;;6.88;4.70;;;10.80;99.90;;;;;;5090151;28;20377;-83
2022/06/04 10:46:14;;;;;;;7.28;4.57;;;10.70;99.90;;;;;;5090525;28;20391;-83
2022/06/04 10:49:17;;;;;;;6.50;4.80;;;10.60;99.90;;;;;;5090272;28;20376;-83
2022/06/04 10:52:08;;;;;;;6.43;4.38;;;10.60;99.90;;;;;;5090384;28;20923;-81
2022/06/04 10:54:49;;;;;;;6.80;4.80;;;10.60;99.90;;;;;;5090323;28;20877;-82
2022/06/04 10:57:28;;;;;;;6.35;4.40;;;10.40;99.90;;;;;;5090001;28;20422;-82
2022/06/04 11:00:18;;;;;;;5.40;3.88;;;10.20;99.90;;;;;;5090029;28;20369;-81
2022/06/04 11:03:07;;;;;;;4.87;3.30;;;10.10;99.90;;;;;;5089629;28;20422;-82
2022/06/04 11:05:58;;;;;;;4.20;3.17;;;10.00;99.90;;;;;;5090363;28;20368;-82
2022/06/04 11:08:34;;;;;;;3.83;2.77;;;9.90;99.90;;;;;;5071685;28;20795;-81
2022/06/04 11:11:09;;;;;;;4.10;2.83;;;9.80;99.90;;;;;;5089908;28;20400;-82
2022/06/04 11:14:10;;;;;;;3.85;3.15;;;9.80;99.90;;;;;;5092082;28;20783;-83
2022/06/04 11:16:43;;;;;;;4.83;3.50;;;9.90;99.90;;;;;;5089522;28;20380;-81
2022/06/04 11:19:24;;;;;;;5.40;3.90;;;10.00;99.90;;;;;;5089645;28;20364;-82
2022/06/04 11:22:33;;;;;;;4.47;3.45;;;10.10;99.90;;;;;;5089692;28;20368;-81
2022/06/04 11:25:27;;;;;;;4.05;3.10;;;10.10;99.90;;;;;;4988117;28;20389;-82
2022/06/04 11:28:01;;;;;;;4.13;3.10;;;10.10;99.90;;;;;;4987855;28;20892;-81
2022/06/04 11:30:49;;;;;;;3.97;2.67;;;10.20;99.90;;;;;;4987815;28;20421;-82
2022/06/04 11:33:22;;;;;;;5.30;3.10;;;10.20;99.90;;;;;;4988325;28;20373;-83
2022/06/04 11:36:33;;;;;;;3.40;2.92;;;10.30;99.90;;;;;;5000225;28;20391;-83
2022/06/04 11:39:08;;;;;;;4.25;3.38;;;10.10;99.90;;;;;;5006856;28;20438;-82
2022/06/04 11:41:45;;;;;;;4.22;3.10;;;10.10;99.90;;;;;;5007288;28;20784;-83
2022/06/04 11:44:42;;;;;;;3.00;2.17;;;10.00;99.90;;;;;;5007857;28;20375;-82
2022/06/04 11:47:25;;;;;;;3.88;3.10;;;9.90;99.90;;;;;;5007497;28;20372;-81
2022/06/04 11:49:55;;;;;;;7.03;5.15;;;9.70;99.90;;;;;;4990667;28;20763;-82
2022/06/04 11:52:31;;;;;;;3.70;3.40;;;9.60;99.90;;;;;;5006978;28;20779;-81
2022/06/04 11:55:27;;;;;;;2.92;2.40;;;9.60;99.90;;;;;;5007007;28;20417;-82
2022/06/04 11:58:19;;;;;;;2.45;1.95;;;9.60;99.90;;;;;;5010002;28;20466;-82
2022/06/04 12:00:47;;;;;;;2.80;2.20;;;9.60;99.90;;;;;;5089436;28;20395;-82
2022/06/04 12:03:45;;;;;;;2.53;2.05;;;9.60;99.90;;;;;;5089397;28;20844;-83
2022/06/04 12:06:18;;;;;;;3.03;1.90;;;9.50;99.90;;;;;;5088912;28;20442;-82
2022/06/04 12:09:17;;;;;;;2.50;2.05;;;9.50;99.90;;;;;;5089363;28;20370;-83
2022/06/04 12:11:58;;;;;;;2.92;2.17;;;9.40;99.90;;;;;;5006946;28;20407;-84
2022/06/04 12:14:50;;;;;;;2.42;2.00;;;9.30;99.90;;;;;;5006997;28;20379;-82
2022/06/04 12:17:47;;;;;;;2.60;1.98;;;9.20;99.90;;;;;;5007141;28;20385;-82
2022/06/04 12:26:38;;;;;;;2.15;1.90;;;9.40;99.90;;;;;;4929868;29;20476;-83
2022/06/04 12:29:24;;;;;;;1.90;1.60;;;9.40;99.90;;;;;;4929497;29;20743;-83
2022/06/04 12:32:02;;;;;;;2.58;1.98;;;9.40;99.90;;;;;;4929179;29;20398;-82
2022/06/04 12:34:32;;;;;;;2.30;1.85;;;9.30;99.90;;;;;;4929634;29;20410;-84
2022/06/04 12:37:00;;;;;;;2.80;1.83;;;9.30;99.90;;;;;;4929883;29;20394;-83
2022/06/04 12:39:37;;;;;;;2.40;1.75;;;9.20;99.90;;;;;;4929231;29;20760;-83
2022/06/04 12:42:19;;;;;;;1.80;1.67;;;9.10;99.90;;;;;;4929459;29;20926;-83
2022/06/04 12:45:04;;;;;;;2.55;1.92;;;8.90;99.90;;;;;;4929817;29;20728;-83
2022/06/04 12:47:35;;;;;;;2.30;1.70;;;8.90;99.90;;;;;;4953407;28;20373;-84
2022/06/04 12:50:14;;;;;;;2.67;1.70;;;8.80;99.90;;;;;;5028980;28;20417;-84
2022/06/04 12:52:47;;;;;;;2.75;2.55;;;8.70;99.90;;;;;;5030387;28;20437;-83
2022/06/04 12:55:41;;;;;;;3.15;2.60;;;8.70;99.90;;;;;;5030348;28;20389;-83
2022/06/04 12:58:38;;;;;;;2.90;2.53;;;8.60;99.90;;;;;;5081638;28;20852;-83
2022/06/04 13:01:25;;;;;;;2.95;2.35;;;8.60;99.90;;;;;;5092864;28;20372;-84
2022/06/04 13:04:04;;;;;;;3.10;2.60;;;8.60;99.90;;;;;;5094841;28;20368;-83
2022/06/04 13:06:37;;;;;;;3.97;2.40;;;8.60;99.90;;;;;;5092293;28;20395;-83
2022/06/04 13:09:16;;;;;;;2.85;2.00;;;8.60;99.90;;;;;;5092112;28;20423;-83
2022/06/04 13:11:49;;;;;;;2.97;2.10;;;8.60;99.90;;;;;;5092120;28;20482;-83
2022/06/04 13:14:42;;;;;;;4.18;2.90;;;8.60;99.90;;;;;;5099379;28;20390;-83
2022/06/04 13:17:41;;;;;;;3.47;2.67;;;8.60;99.90;;;;;;5092427;28;20380;-84
2022/06/04 13:20:31;;;;;;;2.38;2.05;;;8.60;99.90;;;;;;5090763;28;20383;-84
2022/06/04 13:23:23;;;;;;;2.38;2.00;;;8.60;99.90;;;;;;5091901;28;20372;-84
2022/06/04 13:25:55;;;;;;;3.20;2.15;;;8.60;99.90;;;;;;5091891;28;20379;-83
2022/06/04 13:28:43;;;;;;;2.80;2.15;;;8.50;99.90;;;;;;5091816;28;20372;-84
2022/06/04 13:31:22;;;;;;;2.33;1.73;;;8.50;99.90;;;;;;5091799;28;20392;-84
2022/06/04 13:33:50;;;;;;;3.53;1.90;;;8.40;99.90;;;;;;5091690;28;20424;-84
2022/06/04 13:36:30;;;;;;;2.10;1.90;;;8.40;99.90;;;;;;5091661;28;20493;-84
2022/06/04 13:39:00;;;;;;;2.70;1.90;;;8.40;99.90;;;;;;5091623;28;20439;-84
2022/06/04 13:44:28;;;;;;;3.28;2.80;;;8.40;99.90;;;;;;5091917;28;20417;-83
2022/06/04 13:47:22;;;;;;;2.70;2.50;;;8.40;99.90;;;;;;5091917;28;20360;-85
2022/06/04 13:50:03;;;;;;;2.78;2.22;;;8.40;99.90;;;;;;5091911;28;20867;-83
2022/06/04 13:52:30;;;;;;;3.28;2.10;;;8.30;99.90;;;;;;5091419;28;20376;-83
2022/06/04 13:55:03;;;;;;;3.05;2.17;;;8.20;99.90;;;;;;5091322;28;20368;-83
2022/06/04 13:57:46;;;;;;;2.88;2.08;;;8.10;99.90;;;;;;5091548;28;20364;-83
2022/06/04 14:00:30;;;;;;;3.38;2.10;;;8.10;99.90;;;;;;5090907;28;20440;-84